sensor_id;sensor_type;location;lat;lon;timestamp;pressure;altitude;pressure_sealevel;temperature;humidity
22930;BME280;11630;42.660;23.292;2023-09-12T00:02:04;69399.41;;;16.88;84.28
22930;BME280;11630;42.660;23.292;2023-09-12T00:04:34;69386.83;;;16.74;85.09
22930;BME280;11630;42.660;23.292;2023-09-12T00:07:04;69385.19;;;16.75;85.39
22930;BME280;11630;42.660;23.292;2023-09-12T00:09:35;69369.32;;;16.60;86.79
22930;BME280;11630;42.660;23.292;2023-09-12T00:12:06;69364.68;;;16.52;87.29
22930;BME280;11630;42.660;23.292;2023-09-12T00:14:36;69366.34;;;16.54;87.65
22930;BME280;11630;42.660;23.292;2023-09-12T00:17:09;69373.99;;;16.61;87.62
22930;BME280;11630;42.660;23.292;2023-09-12T00:19:42;69364.67;;;16.60;87.11
22930;BME280;11630;42.660;23.292;2023-09-12T00:22:12;69350.45;;;16.42;88.23
22930;BME280;11630;42.660;23.292;2023-09-12T00:24:42;69318.45;;;16.16;89.97
22930;BME280;11630;42.660;23.292;2023-09-12T00:27:13;69310.53;;;16.08;91.43
22930;BME280;11630;42.660;23.292;2023-09-12T00:29:44;69322.02;;;16.16;90.87
22930;BME280;11630;42.660;23.292;2023-09-12T00:32:15;69326.11;;;16.21;91.24
22930;BME280;11630;42.660;23.292;2023-09-12T00:34:45;69338.72;;;16.30;90.59
22930;BME280;11630;42.660;23.292;2023-09-12T00:37:17;69343.33;;;16.43;90.18
22930;BME280;11630;42.660;23.292;2023-09-12T00:39:48;69349.36;;;16.41;90.09
22930;BME280;11630;42.660;23.292;2023-09-12T00:42:19;69348.02;;;16.36;90.08
22930;BME280;11630;42.660;23.292;2023-09-12T00:44:48;69349.11;;;16.37;90.42
22930;BME280;11630;42.660;23.292;2023-09-12T00:47:20;69339.54;;;16.32;90.42
22930;BME280;11630;42.660;23.292;2023-09-12T00:49:52;69322.55;;;16.19;91.18
22930;BME280;11630;42.660;23.292;2023-09-12T00:52:25;69302.61;;;16.00;91.92
22930;BME280;11630;42.660;23.292;2023-09-12T00:54:56;69285.39;;;15.85;93.27
22930;BME280;11630;42.660;23.292;2023-09-12T00:57:27;69289.48;;;15.90;93.88
22930;BME280;11630;42.660;23.292;2023-09-12T00:59:58;69298.24;;;15.93;94.17
22930;BME280;11630;42.660;23.292;2023-09-12T01:02:29;69291.13;;;15.92;94.73
22930;BME280;11630;42.660;23.292;2023-09-12T01:05:00;69302.88;;;16.01;93.31
22930;BME280;11630;42.660;23.292;2023-09-12T01:07:31;69287.58;;;15.87;93.52
22930;BME280;11630;42.660;23.292;2023-09-12T01:10:01;69265.98;;;15.71;94.86
22930;BME280;11630;42.660;23.292;2023-09-12T01:12:31;69296.06;;;15.89;94.01
22930;BME280;11630;42.660;23.292;2023-09-12T01:15:02;69299.06;;;15.95;94.04
22930;BME280;11630;42.660;23.292;2023-09-12T01:17:33;69296.31;;;15.93;93.78
22930;BME280;11630;42.660;23.292;2023-09-12T01:20:19;69291.39;;;15.93;93.12
22930;BME280;11630;42.660;23.292;2023-09-12T01:28:05;69254.52;;;15.53;96.27
22930;BME280;11630;42.660;23.292;2023-09-12T01:30:39;69266.80;;;15.68;97.10
22930;BME280;11630;42.660;23.292;2023-09-12T01:33:11;69274.47;;;15.70;96.60
22930;BME280;11630;42.660;23.292;2023-09-12T01:35:42;69267.08;;;15.67;96.46
22930;BME280;11630;42.660;23.292;2023-09-12T01:38:13;69278.55;;;15.83;96.14
22930;BME280;11630;42.660;23.292;2023-09-12T01:40:50;69273.93;;;15.70;95.58
22930;BME280;11630;42.660;23.292;2023-09-12T01:43:22;69246.33;;;15.46;97.63
22930;BME280;11630;42.660;23.292;2023-09-12T01:45:57;69267.36;;;15.64;98.11
22930;BME280;11630;42.660;23.292;2023-09-12T01:48:33;69259.16;;;15.66;96.74
22930;BME280;11630;42.660;23.292;2023-09-12T01:51:00;69272.30;;;15.63;97.10
22930;BME280;11630;42.660;23.292;2023-09-12T01:53:31;69269.27;;;15.69;96.72
22930;BME280;11630;42.660;23.292;2023-09-12T01:56:02;69276.66;;;15.72;95.94
22930;BME280;11630;42.660;23.292;2023-09-12T01:58:33;69278.00;;;15.80;95.78
22930;BME280;11630;42.660;23.292;2023-09-12T02:01:07;69261.89;;;15.66;96.22
22930;BME280;11630;42.660;23.292;2023-09-12T02:03:39;69259.44;;;15.63;97.17
22930;BME280;11630;42.660;23.292;2023-09-12T02:06:10;69273.09;;;15.73;97.16
22930;BME280;11630;42.660;23.292;2023-09-12T02:08:40;69276.64;;;15.77;96.48
22930;BME280;11630;42.660;23.292;2023-09-12T02:11:10;69277.76;;;15.73;96.02
22930;BME280;11630;42.660;23.292;2023-09-12T02:13:43;69243.86;;;15.47;97.32
22930;BME280;11630;42.660;23.292;2023-09-12T02:16:15;69247.14;;;15.45;97.75
22930;BME280;11630;42.660;23.292;2023-09-12T02:18:46;69239.78;;;15.40;98.47
22930;BME280;11630;42.660;23.292;2023-09-12T02:21:17;69247.69;;;15.48;98.19
22930;BME280;11630;42.660;23.292;2023-09-12T02:23:47;69225.84;;;15.24;98.82
22930;BME280;11630;42.660;23.292;2023-09-12T02:26:18;69233.75;;;15.37;98.50
22930;BME280;11630;42.660;23.292;2023-09-12T02:28:48;69234.59;;;15.37;97.86
22930;BME280;11630;42.660;23.292;2023-09-12T02:31:19;69221.18;;;15.28;98.42
22930;BME280;11630;42.660;23.292;2023-09-12T02:33:50;69228.58;;;15.31;98.65
22930;BME280;11630;42.660;23.292;2023-09-12T02:36:21;69231.56;;;15.35;98.20
22930;BME280;11630;42.660;23.292;2023-09-12T02:38:52;69241.41;;;15.41;97.81
22930;BME280;11630;42.660;23.292;2023-09-12T02:41:23;69254.80;;;15.50;97.12
22930;BME280;11630;42.660;23.292;2023-09-12T02:43:54;69232.12;;;15.31;97.74
22930;BME280;11630;42.660;23.292;2023-09-12T02:46:25;69214.89;;;15.19;98.99
22930;BME280;11630;42.660;23.292;2023-09-12T02:48:56;69210.80;;;15.16;99.65
22930;BME280;11630;42.660;23.292;2023-09-12T02:51:27;69216.81;;;15.22;99.14
22930;BME280;11630;42.660;23.292;2023-09-12T02:53:57;69219.00;;;15.29;99.06
22930;BME280;11630;42.660;23.292;2023-09-12T02:56:28;69198.50;;;15.06;100.00
22930;BME280;11630;42.660;23.292;2023-09-12T02:58:59;69199.59;;;15.10;100.00
22930;BME280;11630;42.660;23.292;2023-09-12T03:01:29;69221.45;;;15.27;100.00
22930;BME280;11630;42.660;23.292;2023-09-12T03:04:03;69200.68;;;15.11;100.00
22930;BME280;11630;42.660;23.292;2023-09-12T03:06:33;69209.16;;;15.15;100.00
22930;BME280;11630;42.660;23.292;2023-09-12T03:09:05;69212.70;;;15.17;100.00
22930;BME280;11630;42.660;23.292;2023-09-12T03:11:36;69207.52;;;15.11;99.83
22930;BME280;11630;42.660;23.292;2023-09-12T03:14:07;69219.25;;;15.23;99.13
22930;BME280;11630;42.660;23.292;2023-09-12T03:16:37;69235.13;;;15.35;98.41
22930;BME280;11630;42.660;23.292;2023-09-12T03:19:08;69224.75;;;15.28;97.60
22930;BME280;11630;42.660;23.292;2023-09-12T03:21:38;69217.36;;;15.20;97.87
22930;BME280;11630;42.660;23.292;2023-09-12T03:24:10;69215.44;;;15.22;98.05
22930;BME280;11630;42.660;23.292;2023-09-12T03:26:40;69214.06;;;15.19;98.20
22930;BME280;11630;42.660;23.292;2023-09-12T03:29:11;69221.46;;;15.25;98.58
22930;BME280;11630;42.660;23.292;2023-09-12T03:31:42;69226.13;;;15.25;97.43
22930;BME280;11630;42.660;23.292;2023-09-12T03:34:14;69211.33;;;15.17;97.72
22930;BME280;11630;42.660;23.292;2023-09-12T03:36:44;69192.49;;;15.06;98.56
22930;BME280;11630;42.660;23.292;2023-09-12T03:39:15;69171.47;;;14.83;100.00
22930;BME280;11630;42.660;23.292;2023-09-12T03:41:46;69159.19;;;14.68;100.00
22930;BME280;11630;42.660;23.292;2023-09-12T03:44:18;69183.47;;;14.94;100.00
22930;BME280;11630;42.660;23.292;2023-09-12T03:46:48;69186.50;;;14.95;100.00
22930;BME280;11630;42.660;23.292;2023-09-12T03:49:19;69195.52;;;15.00;100.00
22930;BME280;11630;42.660;23.292;2023-09-12T03:51:50;69170.91;;;14.82;100.00
22930;BME280;11630;42.660;23.292;2023-09-12T03:54:21;69166.82;;;14.80;100.00
22930;BME280;11630;42.660;23.292;2023-09-12T03:56:56;69170.64;;;14.86;100.00
22930;BME280;11630;42.660;23.292;2023-09-12T03:59:27;69184.04;;;14.92;100.00
22930;BME280;11630;42.660;23.292;2023-09-12T04:01:59;69186.22;;;14.99;100.00
22930;BME280;11630;42.660;23.292;2023-09-12T04:04:30;69206.14;;;15.13;100.00
22930;BME280;11630;42.660;23.292;2023-09-12T04:07:00;69175.56;;;14.88;100.00
22930;BME280;11630;42.660;23.292;2023-09-12T04:09:31;69168.47;;;14.74;100.00
22930;BME280;11630;42.660;23.292;2023-09-12T04:12:01;69168.73;;;14.83;100.00
22930;BME280;11630;42.660;23.292;2023-09-12T04:14:31;69192.50;;;14.96;100.00
22930;BME280;11630;42.660;23.292;2023-09-12T04:17:01;69177.20;;;14.87;100.00
22930;BME280;11630;42.660;23.292;2023-09-12T04:19:32;69176.92;;;14.88;100.00
22930;BME280;11630;42.660;23.292;2023-09-12T04:22:03;69174.46;;;14.87;100.00
22930;BME280;11630;42.660;23.292;2023-09-12T04:24:34;69174.75;;;14.88;100.00
22930;BME280;11630;42.660;23.292;2023-09-12T04:27:06;69172.01;;;14.83;100.00
22930;BME280;11630;42.660;23.292;2023-09-12T04:29:42;69160.55;;;14.73;100.00
22930;BME280;11630;42.660;23.292;2023-09-12T04:32:13;69164.64;;;14.73;100.00
22930;BME280;11630;42.660;23.292;2023-09-12T04:34:43;69175.83;;;14.87;100.00
22930;BME280;11630;42.660;23.292;2023-09-12T04:37:14;69202.60;;;15.06;100.00
22930;BME280;11630;42.660;23.292;2023-09-12T04:39:46;69202.59;;;15.09;100.00
22930;BME280;11630;42.660;23.292;2023-09-12T04:42:17;69190.59;;;14.98;100.00
22930;BME280;11630;42.660;23.292;2023-09-12T04:44:47;69192.50;;;14.96;100.00
22930;BME280;11630;42.660;23.292;2023-09-12T04:47:21;69196.59;;;15.01;100.00
22930;BME280;11630;42.660;23.292;2023-09-12T04:49:53;69167.91;;;14.81;100.00
22930;BME280;11630;42.660;23.292;2023-09-12T04:52:23;69167.09;;;14.79;100.00
22930;BME280;11630;42.660;23.292;2023-09-12T04:54:54;69185.13;;;14.98;100.00
22930;BME280;11630;42.660;23.292;2023-09-12T04:57:25;69198.50;;;15.06;100.00
22930;BME280;11630;42.660;23.292;2023-09-12T04:59:55;69226.40;;;15.24;100.00
22930;BME280;11630;42.660;23.292;2023-09-12T05:02:25;69249.88;;;15.50;100.00
22930;BME280;11630;42.660;23.292;2023-09-12T05:04:56;69243.31;;;15.49;100.00
22930;BME280;11630;42.660;23.292;2023-09-12T05:07:27;69251.52;;;15.49;100.00
22930;BME280;11630;42.660;23.292;2023-09-12T05:09:57;69264.07;;;15.66;100.00
22930;BME280;11630;42.660;23.292;2023-09-12T05:12:28;69302.32;;;16.06;99.42
22930;BME280;11630;42.660;23.292;2023-09-12T05:14:58;69344.17;;;16.40;96.97
22930;BME280;11630;42.660;23.292;2023-09-12T05:17:29;69381.36;;;16.71;93.88
22930;BME280;11630;42.660;23.292;2023-09-12T05:20:00;69385.42;;;16.81;92.09
22930;BME280;11630;42.660;23.292;2023-09-12T05:22:31;69408.16;;;16.95;90.85
22930;BME280;11630;42.660;23.292;2023-09-12T05:25:01;69433.34;;;17.16;89.32
22930;BME280;11630;42.660;23.292;2023-09-12T05:27:32;69443.17;;;17.32;88.25
22930;BME280;11630;42.660;23.292;2023-09-12T05:30:03;69474.95;;;17.49;86.69
22930;BME280;11630;42.660;23.292;2023-09-12T05:32:34;69481.25;;;17.58;85.71
22930;BME280;11630;42.660;23.292;2023-09-12T05:35:05;69469.19;;;17.50;86.09
22930;BME280;11630;42.660;23.292;2023-09-12T05:37:36;69508.59;;;17.85;83.32
22930;BME280;11630;42.660;23.292;2023-09-12T05:40:08;69485.34;;;17.63;84.15
22930;BME280;11630;42.660;23.292;2023-09-12T05:42:39;69439.64;;;17.20;86.48
22930;BME280;11630;42.660;23.292;2023-09-12T05:45:10;69450.83;;;17.39;86.62
22930;BME280;11630;42.660;23.292;2023-09-12T05:47:41;69440.15;;;17.26;87.55
22930;BME280;11630;42.660;23.292;2023-09-12T05:50:12;69481.47;;;17.67;86.24
22930;BME280;11630;42.660;23.292;2023-09-12T05:52:43;69505.83;;;17.88;84.43
22930;BME280;11630;42.660;23.292;2023-09-12T05:55:15;69521.73;;;18.00;82.53
22930;BME280;11630;42.660;23.292;2023-09-12T05:57:46;69529.09;;;18.10;82.63
22930;BME280;11630;42.660;23.292;2023-09-12T06:00:17;69535.45;;;18.02;81.19
22930;BME280;11630;42.660;23.292;2023-09-12T06:02:47;69565.02;;;18.37;80.51
22930;BME280;11630;42.660;23.292;2023-09-12T06:05:18;69560.66;;;18.28;81.05
22930;BME280;11630;42.660;23.292;2023-09-12T06:07:49;69566.12;;;18.38;80.40
22930;BME280;11630;42.660;23.292;2023-09-12T06:10:20;69597.09;;;18.59;78.67
22930;BME280;11630;42.660;23.292;2023-09-12T06:12:51;69612.95;;;18.76;77.16
22930;BME280;11630;42.660;23.292;2023-09-12T06:15:22;69613.76;;;18.81;76.63
22930;BME280;11630;42.660;23.292;2023-09-12T06:17:53;69602.56;;;18.64;76.83
22930;BME280;11630;42.660;23.292;2023-09-12T06:20:24;69652.16;;;19.11;75.61
22930;BME280;11630;42.660;23.292;2023-09-12T06:22:55;69675.47;;;19.28;74.49
22930;BME280;11630;42.660;23.292;2023-09-12T06:25:26;69674.88;;;19.37;73.13
22930;BME280;11630;42.660;23.292;2023-09-12T06:27:56;69661.22;;;19.20;72.63
22930;BME280;11630;42.660;23.292;2023-09-12T06:30:27;69692.46;;;19.46;72.24
22930;BME280;11630;42.660;23.292;2023-09-12T06:32:58;69674.09;;;19.28;70.22
22930;BME280;11630;42.660;23.292;2023-09-12T06:35:29;69695.18;;;19.51;70.17
22930;BME280;11630;42.660;23.292;2023-09-12T06:38:00;69730.83;;;19.81;68.71
22930;BME280;11630;42.660;23.292;2023-09-12T06:40:31;69716.08;;;19.60;68.56
22930;BME280;11630;42.660;23.292;2023-09-12T06:43:02;69769.48;;;20.22;66.47
22930;BME280;11630;42.660;23.292;2023-09-12T06:45:33;69784.88;;;20.31;65.33
22930;BME280;11630;42.660;23.292;2023-09-12T06:48:04;69759.34;;;20.11;65.46
22930;BME280;11630;42.660;23.292;2023-09-12T06:50:35;69787.09;;;20.30;64.69
22930;BME280;11630;42.660;23.292;2023-09-12T06:53:06;69767.30;;;20.17;65.47
22930;BME280;11630;42.660;23.292;2023-09-12T06:55:37;69782.36;;;20.37;64.37
22930;BME280;11630;42.660;23.292;2023-09-12T06:58:08;69847.47;;;20.85;62.73
22930;BME280;11630;42.660;23.292;2023-09-12T07:00:39;69768.72;;;20.12;64.95
22930;BME280;11630;42.660;23.292;2023-09-12T07:03:09;69812.89;;;20.51;66.76
22930;BME280;11630;42.660;23.292;2023-09-12T07:05:41;69858.69;;;20.99;70.65
22930;BME280;11630;42.660;23.292;2023-09-12T07:08:12;69884.54;;;21.15;68.89
22930;BME280;11630;42.660;23.292;2023-09-12T07:10:46;69921.54;;;21.60;60.74
22930;BME280;11630;42.660;23.292;2023-09-12T07:13:16;70020.02;;;22.31;61.76
22930;BME280;11630;42.660;23.292;2023-09-12T07:15:46;70070.51;;;22.87;59.15
22930;BME280;11630;42.660;23.292;2023-09-12T07:18:18;70080.09;;;22.99;56.34
22930;BME280;11630;42.660;23.292;2023-09-12T07:20:56;70096.59;;;23.17;55.15
22930;BME280;11630;42.660;23.292;2023-09-12T07:23:19;69945.44;;;21.80;57.96
22930;BME280;11630;42.660;23.292;2023-09-12T07:25:50;69935.64;;;21.59;57.02
22930;BME280;11630;42.660;23.292;2023-09-12T07:28:21;69899.28;;;21.38;58.67
22930;BME280;11630;42.660;23.292;2023-09-12T07:30:52;69910.58;;;21.45;57.67
22930;BME280;11630;42.660;23.292;2023-09-12T07:33:23;70028.86;;;22.34;60.99
22930;BME280;11630;42.660;23.292;2023-09-12T07:35:53;69982.57;;;22.05;55.51
22930;BME280;11630;42.660;23.292;2023-09-12T07:38:25;70037.28;;;22.53;55.97
22930;BME280;11630;42.660;23.292;2023-09-12T07:40:56;70057.33;;;22.72;54.92
22930;BME280;11630;42.660;23.292;2023-09-12T07:43:27;70124.66;;;23.39;53.47
22930;BME280;11630;42.660;23.292;2023-09-12T07:45:58;70124.66;;;23.39;53.47
22930;BME280;11630;42.660;23.292;2023-09-12T07:48:28;70146.88;;;23.63;52.08
22930;BME280;11630;42.660;23.292;2023-09-12T07:50:59;70031.73;;;22.53;52.30
22930;BME280;11630;42.660;23.292;2023-09-12T07:53:30;70031.73;;;22.53;52.30
22930;BME280;11630;42.660;23.292;2023-09-12T07:56:00;70092.23;;;23.08;52.46
22930;BME280;11630;42.660;23.292;2023-09-12T07:58:32;70200.62;;;24.03;49.47
22930;BME280;11630;42.660;23.292;2023-09-12T08:01:10;70242.41;;;24.46;52.18
22930;BME280;11630;42.660;23.292;2023-09-12T08:03:38;70242.41;;;24.46;52.18
22930;BME280;11630;42.660;23.292;2023-09-12T08:06:11;70268.67;;;24.58;47.06
22930;BME280;11630;42.660;23.292;2023-09-12T08:08:42;70308.58;;;24.95;46.84
22930;BME280;11630;42.660;23.292;2023-09-12T08:11:14;70372.09;;;25.38;48.23
22930;BME280;11630;42.660;23.292;2023-09-12T08:13:45;70299.23;;;24.84;46.37
22930;BME280;11630;42.660;23.292;2023-09-12T08:16:17;70354.36;;;25.32;46.66
22930;BME280;11630;42.660;23.292;2023-09-12T08:18:48;70249.48;;;24.60;45.93
22930;BME280;11630;42.660;23.292;2023-09-12T08:21:18;70224.23;;;24.29;46.64
22930;BME280;11630;42.660;23.292;2023-09-12T08:23:49;70277.20;;;24.67;45.70
22930;BME280;11630;42.660;23.292;2023-09-12T08:26:20;70263.08;;;24.61;45.97
22930;BME280;11630;42.660;23.292;2023-09-12T08:28:51;70380.30;;;25.50;44.74
22930;BME280;11630;42.660;23.292;2023-09-12T08:31:22;70338.91;;;25.20;44.25
22930;BME280;11630;42.660;23.292;2023-09-12T08:33:52;70408.63;;;25.82;42.99
22930;BME280;11630;42.660;23.292;2023-09-12T08:36:23;70339.88;;;25.34;43.37
22930;BME280;11630;42.660;23.292;2023-09-12T08:38:54;70402.11;;;25.66;42.64
22930;BME280;11630;42.660;23.292;2023-09-12T08:41:24;70441.52;;;26.03;44.58
22930;BME280;11630;42.660;23.292;2023-09-12T08:43:57;70481.69;;;26.46;41.37
22930;BME280;11630;42.660;23.292;2023-09-12T08:46:32;70504.91;;;26.62;40.96
22930;BME280;11630;42.660;23.292;2023-09-12T08:49:05;70496.63;;;26.57;40.73
22930;BME280;11630;42.660;23.292;2023-09-12T08:51:40;70560.97;;;27.09;40.19
22930;BME280;11630;42.660;23.292;2023-09-12T08:54:07;70570.88;;;27.18;39.58
22930;BME280;11630;42.660;23.292;2023-09-12T08:56:39;70521.17;;;26.78;40.43
22930;BME280;11630;42.660;23.292;2023-09-12T08:59:11;70475.66;;;26.39;40.79
22930;BME280;11630;42.660;23.292;2023-09-12T09:01:44;70447.98;;;26.21;41.06
22930;BME280;11630;42.660;23.292;2023-09-12T09:04:15;70560.97;;;27.09;38.87
22930;BME280;11630;42.660;23.292;2023-09-12T09:06:47;70493.66;;;26.48;39.52
22930;BME280;11630;42.660;23.292;2023-09-12T09:09:18;70532.32;;;27.02;38.78
22930;BME280;11630;42.660;23.292;2023-09-12T09:11:50;70521.97;;;26.80;38.65
22930;BME280;11630;42.660;23.292;2023-09-12T09:14:20;70570.97;;;27.32;38.26
22930;BME280;11630;42.660;23.292;2023-09-12T09:16:52;70547.06;;;27.04;38.83
22930;BME280;11630;42.660;23.292;2023-09-12T09:19:23;70574.29;;;27.35;37.56
22930;BME280;11630;42.660;23.292;2023-09-12T09:21:55;70585.38;;;27.40;37.90
22930;BME280;11630;42.660;23.292;2023-09-12T09:24:27;70584.97;;;27.51;37.98
22930;BME280;11630;42.660;23.292;2023-09-12T09:26:58;70599.56;;;27.68;37.29
22930;BME280;11630;42.660;23.292;2023-09-12T09:29:29;70744.49;;;28.78;36.04
22930;BME280;11630;42.660;23.292;2023-09-12T09:32:01;70749.97;;;28.85;35.43
22930;BME280;11630;42.660;23.292;2023-09-12T09:34:32;70614.36;;;27.67;37.21
22930;BME280;11630;42.660;23.292;2023-09-12T09:37:03;70687.55;;;28.29;36.28
22930;BME280;11630;42.660;23.292;2023-09-12T09:39:36;70801.41;;;29.27;34.75
22930;BME280;11630;42.660;23.292;2023-09-12T09:42:09;70717.14;;;28.52;35.45
22930;BME280;11630;42.660;23.292;2023-09-12T09:44:39;70795.29;;;29.24;34.61
22930;BME280;11630;42.660;23.292;2023-09-12T09:47:10;70825.45;;;29.50;34.49
22930;BME280;11630;42.660;23.292;2023-09-12T09:49:41;70820.52;;;29.43;34.35
22930;BME280;11630;42.660;23.292;2023-09-12T09:52:13;70777.36;;;29.06;34.73
22930;BME280;11630;42.660;23.292;2023-09-12T09:54:45;70805.58;;;29.29;34.11
22930;BME280;11630;42.660;23.292;2023-09-12T09:57:16;70892.05;;;30.11;33.68
22930;BME280;11630;42.660;23.292;2023-09-12T09:59:51;70932.44;;;30.47;32.66
22930;BME280;11630;42.660;23.292;2023-09-12T10:02:22;70839.81;;;29.63;33.19
22930;BME280;11630;42.660;23.292;2023-09-12T10:04:55;70856.63;;;29.81;33.23
22930;BME280;11630;42.660;23.292;2023-09-12T10:07:30;70906.80;;;30.34;32.92
22930;BME280;11630;42.660;23.292;2023-09-12T10:10:02;70855.28;;;29.76;32.94
22930;BME280;11630;42.660;23.292;2023-09-12T10:12:39;70859.13;;;29.82;32.95
22930;BME280;11630;42.660;23.292;2023-09-12T10:15:10;70759.43;;;28.89;33.79
22930;BME280;11630;42.660;23.292;2023-09-12T10:17:44;70772.14;;;29.00;33.16
22930;BME280;11630;42.660;23.292;2023-09-12T10:20:20;70790.36;;;29.17;32.58
22930;BME280;11630;42.660;23.292;2023-09-12T10:23:08;70790.06;;;29.18;33.35
22930;BME280;11630;42.660;23.292;2023-09-12T10:25:38;70824.05;;;29.50;32.44
22930;BME280;11630;42.660;23.292;2023-09-12T10:28:13;70884.06;;;30.02;31.87
22930;BME280;11630;42.660;23.292;2023-09-12T10:30:45;70879.33;;;29.99;31.91
22930;BME280;11630;42.660;23.292;2023-09-12T10:33:16;70931.82;;;30.49;32.16
22930;BME280;11630;42.660;23.292;2023-09-12T10:35:48;71005.20;;;31.11;31.11
22930;BME280;11630;42.660;23.292;2023-09-12T10:38:20;71046.94;;;31.50;31.58
22930;BME280;11630;42.660;23.292;2023-09-12T10:40:52;71088.77;;;31.86;30.38
22930;BME280;11630;42.660;23.292;2023-09-12T10:43:24;71119.48;;;32.15;29.93
22930;BME280;11630;42.660;23.292;2023-09-12T10:45:56;71130.24;;;32.26;29.27
22930;BME280;11630;42.660;23.292;2023-09-12T10:48:27;71160.74;;;32.51;29.24
22930;BME280;11630;42.660;23.292;2023-09-12T10:50:58;71142.73;;;32.36;28.99
22930;BME280;11630;42.660;23.292;2023-09-12T10:53:31;71118.08;;;32.15;29.21
22930;BME280;11630;42.660;23.292;2023-09-12T10:56:16;71075.89;;;31.82;29.36
22930;BME280;11630;42.660;23.292;2023-09-12T11:01:39;71036.67;;;31.42;30.22
22930;BME280;11630;42.660;23.292;2023-09-12T11:06:58;71143.84;;;32.37;29.04
22930;BME280;11630;42.660;23.292;2023-09-12T11:09:32;71182.31;;;32.73;28.84
22930;BME280;11630;42.660;23.292;2023-09-12T11:12:05;71082.33;;;31.84;29.59
22930;BME280;11630;42.660;23.292;2023-09-12T11:14:41;71106.11;;;32.08;29.33
22930;BME280;11630;42.660;23.292;2023-09-12T11:17:19;71132.46;;;32.28;29.25
22930;BME280;11630;42.660;23.292;2023-09-12T11:19:47;71180.66;;;32.71;28.48
22930;BME280;11630;42.660;23.292;2023-09-12T11:22:27;71167.11;;;32.58;28.62
22930;BME280;11630;42.660;23.292;2023-09-12T11:25:03;71205.86;;;32.92;28.59
22930;BME280;11630;42.660;23.292;2023-09-12T11:30:15;71151.29;;;32.45;28.54
22930;BME280;11630;42.660;23.292;2023-09-12T11:32:47;71135.27;;;32.28;28.91
22930;BME280;11630;42.660;23.292;2023-09-12T11:38:10;71281.81;;;33.61;27.88
22930;BME280;11630;42.660;23.292;2023-09-12T11:40:43;71267.34;;;33.50;27.82
22930;BME280;11630;42.660;23.292;2023-09-12T11:43:27;71259.38;;;33.39;27.51
22930;BME280;11630;42.660;23.292;2023-09-12T11:45:57;71211.91;;;33.00;28.45
22930;BME280;11630;42.660;23.292;2023-09-12T11:48:28;71267.94;;;33.48;28.45
22930;BME280;11630;42.660;23.292;2023-09-12T11:51:00;71239.88;;;33.27;28.23
22930;BME280;11630;42.660;23.292;2023-09-12T11:53:31;71282.47;;;33.70;27.90
22930;BME280;11630;42.660;23.292;2023-09-12T11:56:02;71364.34;;;34.37;27.38
22930;BME280;11630;42.660;23.292;2023-09-12T11:58:35;71371.20;;;34.47;26.33
22930;BME280;11630;42.660;23.292;2023-09-12T12:01:05;71413.73;;;34.81;25.87
22930;BME280;11630;42.660;23.292;2023-09-12T12:03:37;71418.41;;;34.87;25.77
22930;BME280;11630;42.660;23.292;2023-09-12T12:06:07;71407.38;;;34.74;26.00
22930;BME280;11630;42.660;23.292;2023-09-12T12:08:39;71319.19;;;33.95;26.08
22930;BME280;11630;42.660;23.292;2023-09-12T12:11:10;71367.38;;;34.41;25.85
22930;BME280;11630;42.660;23.292;2023-09-12T12:13:41;71323.37;;;33.98;26.35
22930;BME280;11630;42.660;23.292;2023-09-12T12:16:16;71381.55;;;34.52;25.89
22930;BME280;11630;42.660;23.292;2023-09-12T12:18:46;71419.27;;;34.86;25.54
22930;BME280;11630;42.660;23.292;2023-09-12T12:21:16;71475.85;;;35.37;25.00
22930;BME280;11630;42.660;23.292;2023-09-12T12:23:47;71479.19;;;35.40;24.69
22930;BME280;11630;42.660;23.292;2023-09-12T12:26:21;71331.36;;;34.09;25.96
22930;BME280;11630;42.660;23.292;2023-09-12T12:28:52;71377.10;;;34.48;25.14
22930;BME280;11630;42.660;23.292;2023-09-12T12:31:23;71235.76;;;33.22;26.63
22930;BME280;11630;42.660;23.292;2023-09-12T12:34:00;71385.69;;;34.57;25.49
22930;BME280;11630;42.660;23.292;2023-09-12T12:36:31;71315.86;;;33.92;25.66
22930;BME280;11630;42.660;23.292;2023-09-12T12:39:02;71414.02;;;34.80;25.12
22930;BME280;11630;42.660;23.292;2023-09-12T12:41:33;71452.02;;;35.16;24.61
22930;BME280;11630;42.660;23.292;2023-09-12T12:44:05;71455.59;;;35.20;24.28
22930;BME280;11630;42.660;23.292;2023-09-12T12:46:47;71487.22;;;35.48;24.14
22930;BME280;11630;42.660;23.292;2023-09-12T12:49:09;71497.75;;;35.58;24.34
22930;BME280;11630;42.660;23.292;2023-09-12T12:51:42;71503.31;;;35.63;23.73
22930;BME280;11630;42.660;23.292;2023-09-12T12:54:12;71514.09;;;35.74;23.41
22930;BME280;11630;42.660;23.292;2023-09-12T12:56:44;71539.44;;;35.93;23.62
22930;BME280;11630;42.660;23.292;2023-09-12T12:59:14;71536.34;;;35.91;23.43
22930;BME280;11630;42.660;23.292;2023-09-12T13:01:45;71455.63;;;35.18;24.05
22930;BME280;11630;42.660;23.292;2023-09-12T13:04:15;71422.95;;;34.86;24.31
22930;BME280;11630;42.660;23.292;2023-09-12T13:06:47;71201.14;;;32.89;26.17
22930;BME280;11630;42.660;23.292;2023-09-12T13:09:18;71169.82;;;32.63;26.76
22930;BME280;11630;42.660;23.292;2023-09-12T13:11:48;71171.55;;;32.62;27.26
22930;BME280;11630;42.660;23.292;2023-09-12T13:14:19;71229.66;;;33.16;26.37
22930;BME280;11630;42.660;23.292;2023-09-12T13:16:50;71228.05;;;33.12;26.05
22930;BME280;11630;42.660;23.292;2023-09-12T13:19:20;71301.70;;;33.81;25.66
22930;BME280;11630;42.660;23.292;2023-09-12T13:21:52;71395.73;;;34.64;25.00
22930;BME280;11630;42.660;23.292;2023-09-12T13:24:22;71419.27;;;34.86;24.60
22930;BME280;11630;42.660;23.292;2023-09-12T13:26:53;71435.09;;;34.99;24.58